Terminal Aerodrome Forecast
Issued by NWS

Home | Current Version | Previous Version | Text Only | Print | Product List | Glossary On
Versions: 1 2 3 4 5 6 7 8 9 10 11 12 13 14
000
FTUS45 KABQ 201700
TAFSAF
TAF
KSAF 201736Z 2018/2118 36010KT P6SM SKC
     FM202030 12013G22KT P6SM FEW080
     FM210030 12020G30KT P6SM VCSH SCT050 BKN080
     FM210600 12010G18KT P6SM SCT035 BKN060=

USA.gov is the U.S. government's official web portal to all federal, state and local government web resources and services.